sensor_id;sensor_type;location;lat;lon;timestamp;P1;durP1;ratioP1;P2;durP2;ratioP2
9892;SDS011;4985;49.092;8.542;2023-04-24T00:01:21;1.63;;;0.87;;
9892;SDS011;4985;49.092;8.542;2023-04-24T00:03:48;1.10;;;1.00;;
9892;SDS011;4985;49.092;8.542;2023-04-24T00:06:15;0.73;;;0.73;;
9892;SDS011;4985;49.092;8.542;2023-04-24T00:08:42;1.07;;;0.83;;
9892;SDS011;4985;49.092;8.542;2023-04-24T00:11:09;1.00;;;0.90;;
9892;SDS011;4985;49.092;8.542;2023-04-24T00:13:37;1.07;;;0.70;;
9892;SDS011;4985;49.092;8.542;2023-04-24T00:16:05;2.20;;;0.93;;
9892;SDS011;4985;49.092;8.542;2023-04-24T00:18:31;1.67;;;0.90;;
9892;SDS011;4985;49.092;8.542;2023-04-24T00:20:58;0.70;;;0.70;;
9892;SDS011;4985;49.092;8.542;2023-04-24T00:23:25;1.37;;;0.90;;
9892;SDS011;4985;49.092;8.542;2023-04-24T00:25:51;0.70;;;0.60;;
9892;SDS011;4985;49.092;8.542;2023-04-24T00:28:18;2.60;;;0.80;;
9892;SDS011;4985;49.092;8.542;2023-04-24T00:30:44;1.27;;;0.60;;
9892;SDS011;4985;49.092;8.542;2023-04-24T00:33:12;1.43;;;0.80;;
9892;SDS011;4985;49.092;8.542;2023-04-24T00:35:39;1.50;;;0.70;;
9892;SDS011;4985;49.092;8.542;2023-04-24T00:38:06;0.70;;;0.70;;
9892;SDS011;4985;49.092;8.542;2023-04-24T00:40:32;1.60;;;0.83;;
9892;SDS011;4985;49.092;8.542;2023-04-24T00:42:59;1.63;;;0.70;;
9892;SDS011;4985;49.092;8.542;2023-04-24T00:45:26;1.57;;;0.80;;
9892;SDS011;4985;49.092;8.542;2023-04-24T00:47:52;2.30;;;0.60;;
9892;SDS011;4985;49.092;8.542;2023-04-24T00:50:20;1.93;;;0.80;;
9892;SDS011;4985;49.092;8.542;2023-04-24T00:52:47;3.47;;;0.90;;
9892;SDS011;4985;49.092;8.542;2023-04-24T00:55:14;1.30;;;0.90;;
9892;SDS011;4985;49.092;8.542;2023-04-24T00:57:41;0.70;;;0.60;;
9892;SDS011;4985;49.092;8.542;2023-04-24T01:00:08;0.70;;;0.70;;
9892;SDS011;4985;49.092;8.542;2023-04-24T01:02:37;0.77;;;0.77;;
9892;SDS011;4985;49.092;8.542;2023-04-24T01:05:09;2.10;;;0.80;;
9892;SDS011;4985;49.092;8.542;2023-04-24T01:07:38;1.43;;;0.70;;
9892;SDS011;4985;49.092;8.542;2023-04-24T01:10:05;1.37;;;0.97;;
9892;SDS011;4985;49.092;8.542;2023-04-24T01:12:33;2.00;;;0.80;;
9892;SDS011;4985;49.092;8.542;2023-04-24T01:15:00;2.50;;;0.83;;
9892;SDS011;4985;49.092;8.542;2023-04-24T01:17:28;0.83;;;0.70;;
9892;SDS011;4985;49.092;8.542;2023-04-24T01:19:56;0.93;;;0.67;;
9892;SDS011;4985;49.092;8.542;2023-04-24T01:22:24;1.33;;;0.87;;
9892;SDS011;4985;49.092;8.542;2023-04-24T01:24:51;2.33;;;0.60;;
9892;SDS011;4985;49.092;8.542;2023-04-24T01:27:18;1.40;;;0.73;;
9892;SDS011;4985;49.092;8.542;2023-04-24T01:29:45;0.97;;;0.83;;
9892;SDS011;4985;49.092;8.542;2023-04-24T01:32:14;0.87;;;0.80;;
9892;SDS011;4985;49.092;8.542;2023-04-24T01:34:41;0.73;;;0.73;;
9892;SDS011;4985;49.092;8.542;2023-04-24T01:37:08;3.23;;;0.90;;
9892;SDS011;4985;49.092;8.542;2023-04-24T01:39:37;0.77;;;0.60;;
9892;SDS011;4985;49.092;8.542;2023-04-24T01:42:04;3.13;;;1.00;;
9892;SDS011;4985;49.092;8.542;2023-04-24T01:44:30;0.67;;;0.67;;
9892;SDS011;4985;49.092;8.542;2023-04-24T01:46:57;0.60;;;0.60;;
9892;SDS011;4985;49.092;8.542;2023-04-24T01:49:24;0.60;;;0.60;;
9892;SDS011;4985;49.092;8.542;2023-04-24T01:51:51;0.70;;;0.70;;
9892;SDS011;4985;49.092;8.542;2023-04-24T01:54:17;1.10;;;0.77;;
9892;SDS011;4985;49.092;8.542;2023-04-24T01:56:46;0.83;;;0.70;;
9892;SDS011;4985;49.092;8.542;2023-04-24T01:59:13;0.77;;;0.77;;
9892;SDS011;4985;49.092;8.542;2023-04-24T02:01:41;0.83;;;0.80;;
9892;SDS011;4985;49.092;8.542;2023-04-24T02:04:07;1.40;;;1.03;;
9892;SDS011;4985;49.092;8.542;2023-04-24T02:06:34;0.60;;;0.60;;
9892;SDS011;4985;49.092;8.542;2023-04-24T02:09:01;1.53;;;0.73;;
9892;SDS011;4985;49.092;8.542;2023-04-24T02:11:29;0.87;;;0.80;;
9892;SDS011;4985;49.092;8.542;2023-04-24T02:13:57;2.33;;;0.90;;
9892;SDS011;4985;49.092;8.542;2023-04-24T02:16:24;0.80;;;0.80;;
9892;SDS011;4985;49.092;8.542;2023-04-24T02:18:50;0.90;;;0.90;;
9892;SDS011;4985;49.092;8.542;2023-04-24T02:21:17;1.90;;;1.00;;
9892;SDS011;4985;49.092;8.542;2023-04-24T02:23:44;1.07;;;0.93;;
9892;SDS011;4985;49.092;8.542;2023-04-24T02:26:10;0.67;;;0.67;;
9892;SDS011;4985;49.092;8.542;2023-04-24T02:28:37;1.63;;;0.80;;
9892;SDS011;4985;49.092;8.542;2023-04-24T02:31:05;1.03;;;0.87;;
9892;SDS011;4985;49.092;8.542;2023-04-24T02:33:32;0.73;;;0.73;;
9892;SDS011;4985;49.092;8.542;2023-04-24T02:35:58;1.10;;;0.87;;
9892;SDS011;4985;49.092;8.542;2023-04-24T02:38:25;1.13;;;0.80;;
9892;SDS011;4985;49.092;8.542;2023-04-24T02:40:52;1.30;;;0.73;;
9892;SDS011;4985;49.092;8.542;2023-04-24T02:43:18;2.67;;;0.80;;
9892;SDS011;4985;49.092;8.542;2023-04-24T02:45:45;1.10;;;1.00;;
9892;SDS011;4985;49.092;8.542;2023-04-24T02:48:13;1.67;;;0.80;;
9892;SDS011;4985;49.092;8.542;2023-04-24T02:50:40;0.80;;;0.80;;
9892;SDS011;4985;49.092;8.542;2023-04-24T02:53:06;1.60;;;0.80;;
9892;SDS011;4985;49.092;8.542;2023-04-24T02:55:33;2.37;;;0.87;;
9892;SDS011;4985;49.092;8.542;2023-04-24T02:57:59;0.73;;;0.73;;
9892;SDS011;4985;49.092;8.542;2023-04-24T03:00:26;0.60;;;0.60;;
9892;SDS011;4985;49.092;8.542;2023-04-24T03:02:53;1.57;;;0.90;;
9892;SDS011;4985;49.092;8.542;2023-04-24T03:05:21;0.53;;;0.53;;
9892;SDS011;4985;49.092;8.542;2023-04-24T03:07:47;1.13;;;0.80;;
9892;SDS011;4985;49.092;8.542;2023-04-24T03:10:14;0.67;;;0.67;;
9892;SDS011;4985;49.092;8.542;2023-04-24T03:12:41;0.63;;;0.63;;
9892;SDS011;4985;49.092;8.542;2023-04-24T03:15:08;1.37;;;0.70;;
9892;SDS011;4985;49.092;8.542;2023-04-24T03:17:35;1.67;;;0.83;;
9892;SDS011;4985;49.092;8.542;2023-04-24T03:20:02;0.90;;;0.80;;
9892;SDS011;4985;49.092;8.542;2023-04-24T03:22:31;1.30;;;0.80;;
9892;SDS011;4985;49.092;8.542;2023-04-24T03:24:58;1.33;;;0.73;;
9892;SDS011;4985;49.092;8.542;2023-04-24T03:27:25;1.90;;;0.80;;
9892;SDS011;4985;49.092;8.542;2023-04-24T03:29:51;2.10;;;1.10;;
9892;SDS011;4985;49.092;8.542;2023-04-24T03:32:20;1.23;;;0.80;;
9892;SDS011;4985;49.092;8.542;2023-04-24T03:34:46;0.83;;;0.80;;
9892;SDS011;4985;49.092;8.542;2023-04-24T03:37:13;2.27;;;0.90;;
9892;SDS011;4985;49.092;8.542;2023-04-24T03:39:41;1.17;;;0.70;;
9892;SDS011;4985;49.092;8.542;2023-04-24T03:42:08;1.70;;;1.03;;
9892;SDS011;4985;49.092;8.542;2023-04-24T03:44:35;1.70;;;1.10;;
9892;SDS011;4985;49.092;8.542;2023-04-24T03:47:02;1.60;;;0.70;;
9892;SDS011;4985;49.092;8.542;2023-04-24T03:49:28;0.77;;;0.77;;
9892;SDS011;4985;49.092;8.542;2023-04-24T03:51:55;2.10;;;0.90;;
9892;SDS011;4985;49.092;8.542;2023-04-24T03:54:21;1.30;;;0.87;;
9892;SDS011;4985;49.092;8.542;2023-04-24T03:56:49;1.53;;;1.00;;
9892;SDS011;4985;49.092;8.542;2023-04-24T03:59:16;2.67;;;0.90;;
9892;SDS011;4985;49.092;8.542;2023-04-24T04:01:42;1.27;;;0.90;;
9892;SDS011;4985;49.092;8.542;2023-04-24T04:04:10;1.30;;;0.80;;
9892;SDS011;4985;49.092;8.542;2023-04-24T04:06:37;1.53;;;1.03;;
9892;SDS011;4985;49.092;8.542;2023-04-24T04:09:03;2.77;;;1.10;;
9892;SDS011;4985;49.092;8.542;2023-04-24T04:11:30;0.90;;;0.83;;
9892;SDS011;4985;49.092;8.542;2023-04-24T04:13:58;1.60;;;1.00;;
9892;SDS011;4985;49.092;8.542;2023-04-24T04:16:24;1.10;;;0.93;;
9892;SDS011;4985;49.092;8.542;2023-04-24T04:18:51;1.00;;;0.90;;
9892;SDS011;4985;49.092;8.542;2023-04-24T04:21:17;1.50;;;1.00;;
9892;SDS011;4985;49.092;8.542;2023-04-24T04:23:44;1.57;;;0.97;;
9892;SDS011;4985;49.092;8.542;2023-04-24T04:26:11;1.67;;;1.57;;
9892;SDS011;4985;49.092;8.542;2023-04-24T04:28:38;0.97;;;0.87;;
9892;SDS011;4985;49.092;8.542;2023-04-24T04:31:06;1.23;;;1.10;;
9892;SDS011;4985;49.092;8.542;2023-04-24T04:33:34;1.80;;;1.10;;
9892;SDS011;4985;49.092;8.542;2023-04-24T04:36:01;1.87;;;1.00;;
9892;SDS011;4985;49.092;8.542;2023-04-24T04:38:28;3.30;;;1.20;;
9892;SDS011;4985;49.092;8.542;2023-04-24T04:40:55;1.10;;;1.00;;
9892;SDS011;4985;49.092;8.542;2023-04-24T04:43:23;1.10;;;0.97;;
9892;SDS011;4985;49.092;8.542;2023-04-24T04:45:49;1.40;;;0.90;;
9892;SDS011;4985;49.092;8.542;2023-04-24T04:48:18;1.77;;;1.40;;
9892;SDS011;4985;49.092;8.542;2023-04-24T04:50:45;1.73;;;1.00;;
9892;SDS011;4985;49.092;8.542;2023-04-24T04:53:11;0.90;;;0.90;;
9892;SDS011;4985;49.092;8.542;2023-04-24T04:55:38;3.50;;;1.23;;
9892;SDS011;4985;49.092;8.542;2023-04-24T04:58:05;1.07;;;0.97;;
9892;SDS011;4985;49.092;8.542;2023-04-24T05:00:31;1.20;;;1.10;;
9892;SDS011;4985;49.092;8.542;2023-04-24T05:03:00;1.33;;;1.00;;
9892;SDS011;4985;49.092;8.542;2023-04-24T05:05:29;1.00;;;1.00;;
9892;SDS011;4985;49.092;8.542;2023-04-24T05:07:55;1.03;;;0.97;;
9892;SDS011;4985;49.092;8.542;2023-04-24T05:10:22;1.20;;;0.93;;
9892;SDS011;4985;49.092;8.542;2023-04-24T05:12:48;3.87;;;1.00;;
9892;SDS011;4985;49.092;8.542;2023-04-24T05:15:15;1.20;;;1.00;;
9892;SDS011;4985;49.092;8.542;2023-04-24T05:17:42;1.20;;;1.10;;
9892;SDS011;4985;49.092;8.542;2023-04-24T05:20:08;2.23;;;1.50;;
9892;SDS011;4985;49.092;8.542;2023-04-24T05:22:37;2.93;;;1.50;;
9892;SDS011;4985;49.092;8.542;2023-04-24T05:25:03;2.20;;;1.60;;
9892;SDS011;4985;49.092;8.542;2023-04-24T05:27:30;3.00;;;1.60;;
9892;SDS011;4985;49.092;8.542;2023-04-24T05:29:57;2.33;;;1.30;;
9892;SDS011;4985;49.092;8.542;2023-04-24T05:32:24;1.73;;;1.20;;
9892;SDS011;4985;49.092;8.542;2023-04-24T05:34:52;1.30;;;1.20;;
9892;SDS011;4985;49.092;8.542;2023-04-24T05:37:18;2.13;;;1.40;;
9892;SDS011;4985;49.092;8.542;2023-04-24T05:39:46;2.37;;;1.70;;
9892;SDS011;4985;49.092;8.542;2023-04-24T05:42:13;1.97;;;1.50;;
9892;SDS011;4985;49.092;8.542;2023-04-24T05:44:39;2.17;;;1.57;;
9892;SDS011;4985;49.092;8.542;2023-04-24T05:47:06;3.37;;;1.40;;
9892;SDS011;4985;49.092;8.542;2023-04-24T05:49:33;1.67;;;1.50;;
9892;SDS011;4985;49.092;8.542;2023-04-24T05:51:59;2.00;;;1.57;;
9892;SDS011;4985;49.092;8.542;2023-04-24T05:54:26;1.67;;;1.30;;
9892;SDS011;4985;49.092;8.542;2023-04-24T05:56:54;1.67;;;1.40;;
9892;SDS011;4985;49.092;8.542;2023-04-24T05:59:20;1.30;;;1.20;;
9892;SDS011;4985;49.092;8.542;2023-04-24T06:01:47;2.23;;;1.23;;
9892;SDS011;4985;49.092;8.542;2023-04-24T06:04:14;1.20;;;1.10;;
9892;SDS011;4985;49.092;8.542;2023-04-24T06:06:40;1.23;;;1.10;;
9892;SDS011;4985;49.092;8.542;2023-04-24T06:09:07;1.63;;;1.40;;
9892;SDS011;4985;49.092;8.542;2023-04-24T06:11:34;1.20;;;1.00;;
9892;SDS011;4985;49.092;8.542;2023-04-24T06:14:01;1.63;;;1.20;;
9892;SDS011;4985;49.092;8.542;2023-04-24T06:16:29;2.17;;;1.30;;
9892;SDS011;4985;49.092;8.542;2023-04-24T06:18:56;2.40;;;1.40;;
9892;SDS011;4985;49.092;8.542;2023-04-24T06:21:23;1.47;;;1.13;;
9892;SDS011;4985;49.092;8.542;2023-04-24T06:23:50;1.60;;;1.40;;
9892;SDS011;4985;49.092;8.542;2023-04-24T06:26:17;1.67;;;1.30;;
9892;SDS011;4985;49.092;8.542;2023-04-24T06:28:43;2.77;;;1.10;;
9892;SDS011;4985;49.092;8.542;2023-04-24T06:31:11;2.30;;;1.70;;
9892;SDS011;4985;49.092;8.542;2023-04-24T06:33:38;2.30;;;1.70;;
9892;SDS011;4985;49.092;8.542;2023-04-24T06:36:04;1.70;;;1.30;;
9892;SDS011;4985;49.092;8.542;2023-04-24T06:38:31;1.37;;;1.10;;
9892;SDS011;4985;49.092;8.542;2023-04-24T06:40:59;1.73;;;1.33;;
9892;SDS011;4985;49.092;8.542;2023-04-24T06:43:25;1.57;;;1.20;;
9892;SDS011;4985;49.092;8.542;2023-04-24T06:45:52;1.43;;;1.30;;
9892;SDS011;4985;49.092;8.542;2023-04-24T06:48:20;1.60;;;1.30;;
9892;SDS011;4985;49.092;8.542;2023-04-24T06:50:46;1.80;;;1.43;;
9892;SDS011;4985;49.092;8.542;2023-04-24T06:53:13;1.80;;;1.33;;
9892;SDS011;4985;49.092;8.542;2023-04-24T06:55:39;2.60;;;1.50;;
9892;SDS011;4985;49.092;8.542;2023-04-24T06:58:06;2.00;;;1.40;;
9892;SDS011;4985;49.092;8.542;2023-04-24T07:00:33;1.53;;;1.40;;
9892;SDS011;4985;49.092;8.542;2023-04-24T07:03:00;1.73;;;1.30;;
9892;SDS011;4985;49.092;8.542;2023-04-24T07:05:28;1.93;;;1.47;;
9892;SDS011;4985;49.092;8.542;2023-04-24T07:07:55;2.83;;;1.60;;
9892;SDS011;4985;49.092;8.542;2023-04-24T07:10:23;1.40;;;1.23;;
9892;SDS011;4985;49.092;8.542;2023-04-24T07:12:52;2.50;;;1.23;;
9892;SDS011;4985;49.092;8.542;2023-04-24T07:15:19;3.37;;;1.40;;
9892;SDS011;4985;49.092;8.542;2023-04-24T07:17:45;1.60;;;1.20;;
9892;SDS011;4985;49.092;8.542;2023-04-24T07:20:12;1.43;;;1.30;;
9892;SDS011;4985;49.092;8.542;2023-04-24T07:22:41;1.77;;;1.30;;
9892;SDS011;4985;49.092;8.542;2023-04-24T07:25:07;1.50;;;1.40;;
9892;SDS011;4985;49.092;8.542;2023-04-24T07:27:34;2.03;;;1.60;;
9892;SDS011;4985;49.092;8.542;2023-04-24T07:30:02;1.37;;;1.20;;
9892;SDS011;4985;49.092;8.542;2023-04-24T07:32:29;1.97;;;1.50;;
9892;SDS011;4985;49.092;8.542;2023-04-24T07:34:55;3.03;;;1.50;;
9892;SDS011;4985;49.092;8.542;2023-04-24T07:37:22;1.93;;;1.57;;
9892;SDS011;4985;49.092;8.542;2023-04-24T07:39:50;2.40;;;1.20;;
9892;SDS011;4985;49.092;8.542;2023-04-24T07:42:17;1.70;;;1.40;;
9892;SDS011;4985;49.092;8.542;2023-04-24T07:44:43;1.47;;;1.33;;
9892;SDS011;4985;49.092;8.542;2023-04-24T07:47:11;1.40;;;1.30;;
9892;SDS011;4985;49.092;8.542;2023-04-24T07:49:40;1.67;;;1.30;;
9892;SDS011;4985;49.092;8.542;2023-04-24T07:52:07;1.77;;;1.33;;
9892;SDS011;4985;49.092;8.542;2023-04-24T07:54:33;3.50;;;1.20;;
9892;SDS011;4985;49.092;8.542;2023-04-24T07:57:02;2.40;;;1.43;;
9892;SDS011;4985;49.092;8.542;2023-04-24T07:59:28;2.63;;;1.27;;
9892;SDS011;4985;49.092;8.542;2023-04-24T08:01:55;1.63;;;1.43;;
9892;SDS011;4985;49.092;8.542;2023-04-24T08:04:21;2.20;;;1.17;;
9892;SDS011;4985;49.092;8.542;2023-04-24T08:06:48;2.10;;;1.10;;
9892;SDS011;4985;49.092;8.542;2023-04-24T08:09:15;1.57;;;1.10;;
9892;SDS011;4985;49.092;8.542;2023-04-24T08:11:41;1.27;;;0.90;;
9892;SDS011;4985;49.092;8.542;2023-04-24T08:14:09;1.60;;;1.17;;
9892;SDS011;4985;49.092;8.542;2023-04-24T08:16:38;1.40;;;1.10;;
9892;SDS011;4985;49.092;8.542;2023-04-24T08:19:04;2.57;;;1.17;;
9892;SDS011;4985;49.092;8.542;2023-04-24T08:21:31;2.33;;;1.50;;
9892;SDS011;4985;49.092;8.542;2023-04-24T08:23:57;1.20;;;1.10;;
9892;SDS011;4985;49.092;8.542;2023-04-24T08:26:24;2.37;;;1.20;;
9892;SDS011;4985;49.092;8.542;2023-04-24T08:28:51;2.20;;;1.47;;
9892;SDS011;4985;49.092;8.542;2023-04-24T08:31:19;1.10;;;1.00;;
9892;SDS011;4985;49.092;8.542;2023-04-24T08:33:45;1.20;;;1.03;;
9892;SDS011;4985;49.092;8.542;2023-04-24T08:36:12;1.07;;;0.97;;
9892;SDS011;4985;49.092;8.542;2023-04-24T08:38:39;1.57;;;1.10;;
9892;SDS011;4985;49.092;8.542;2023-04-24T08:41:05;1.10;;;1.00;;
9892;SDS011;4985;49.092;8.542;2023-04-24T08:43:34;1.60;;;1.47;;
9892;SDS011;4985;49.092;8.542;2023-04-24T08:46:03;1.77;;;1.17;;
9892;SDS011;4985;49.092;8.542;2023-04-24T08:48:31;1.30;;;1.20;;
9892;SDS011;4985;49.092;8.542;2023-04-24T08:50:59;2.23;;;1.00;;
9892;SDS011;4985;49.092;8.542;2023-04-24T08:53:26;1.27;;;1.03;;
9892;SDS011;4985;49.092;8.542;2023-04-24T08:55:54;1.20;;;1.10;;
9892;SDS011;4985;49.092;8.542;2023-04-24T08:58:21;1.30;;;1.20;;
9892;SDS011;4985;49.092;8.542;2023-04-24T09:00:49;1.90;;;1.00;;
9892;SDS011;4985;49.092;8.542;2023-04-24T09:03:15;1.20;;;1.10;;
9892;SDS011;4985;49.092;8.542;2023-04-24T09:05:44;2.07;;;1.00;;
9892;SDS011;4985;49.092;8.542;2023-04-24T09:08:14;1.67;;;1.20;;
9892;SDS011;4985;49.092;8.542;2023-04-24T09:10:43;2.03;;;1.10;;
9892;SDS011;4985;49.092;8.542;2023-04-24T09:13:10;1.83;;;1.00;;
9892;SDS011;4985;49.092;8.542;2023-04-24T09:15:37;2.00;;;1.13;;
9892;SDS011;4985;49.092;8.542;2023-04-24T09:18:05;1.57;;;1.20;;
9892;SDS011;4985;49.092;8.542;2023-04-24T09:20:31;1.83;;;1.67;;
9892;SDS011;4985;49.092;8.542;2023-04-24T09:23:01;1.20;;;1.10;;
9892;SDS011;4985;49.092;8.542;2023-04-24T09:25:30;2.23;;;1.20;;
9892;SDS011;4985;49.092;8.542;2023-04-24T09:28:00;2.63;;;1.20;;
9892;SDS011;4985;49.092;8.542;2023-04-24T09:30:28;2.67;;;1.23;;
9892;SDS011;4985;49.092;8.542;2023-04-24T09:33:09;1.73;;;1.50;;
9892;SDS011;4985;49.092;8.542;2023-04-24T09:35:37;1.47;;;1.10;;
9892;SDS011;4985;49.092;8.542;2023-04-24T09:38:08;3.50;;;1.67;;
9892;SDS011;4985;49.092;8.542;2023-04-24T09:40:35;1.53;;;1.20;;
9892;SDS011;4985;49.092;8.542;2023-04-24T09:43:02;1.77;;;1.10;;
9892;SDS011;4985;49.092;8.542;2023-04-24T09:45:31;1.13;;;1.03;;
9892;SDS011;4985;49.092;8.542;2023-04-24T09:48:01;1.90;;;1.50;;
9892;SDS011;4985;49.092;8.542;2023-04-24T09:50:29;3.37;;;1.50;;
9892;SDS011;4985;49.092;8.542;2023-04-24T09:52:58;1.53;;;1.40;;
9892;SDS011;4985;49.092;8.542;2023-04-24T09:55:27;2.93;;;1.50;;
9892;SDS011;4985;49.092;8.542;2023-04-24T09:57:54;2.80;;;1.40;;
9892;SDS011;4985;49.092;8.542;2023-04-24T10:00:22;1.87;;;1.30;;
9892;SDS011;4985;49.092;8.542;2023-04-24T10:02:50;2.90;;;1.50;;
9892;SDS011;4985;49.092;8.542;2023-04-24T10:05:18;2.07;;;1.63;;
9892;SDS011;4985;49.092;8.542;2023-04-24T10:07:45;2.43;;;1.80;;
9892;SDS011;4985;49.092;8.542;2023-04-24T10:10:12;2.17;;;1.90;;
9892;SDS011;4985;49.092;8.542;2023-04-24T10:12:40;1.97;;;1.70;;
9892;SDS011;4985;49.092;8.542;2023-04-24T10:15:10;4.67;;;2.30;;
9892;SDS011;4985;49.092;8.542;2023-04-24T10:17:38;2.00;;;1.63;;
9892;SDS011;4985;49.092;8.542;2023-04-24T10:20:06;2.77;;;2.00;;
9892;SDS011;4985;49.092;8.542;2023-04-24T10:22:33;1.80;;;1.60;;
9892;SDS011;4985;49.092;8.542;2023-04-24T10:25:01;2.87;;;2.00;;
9892;SDS011;4985;49.092;8.542;2023-04-24T10:27:31;2.20;;;1.53;;
9892;SDS011;4985;49.092;8.542;2023-04-24T10:30:00;2.47;;;1.40;;
9892;SDS011;4985;49.092;8.542;2023-04-24T10:32:27;1.40;;;1.30;;
9892;SDS011;4985;49.092;8.542;2023-04-24T10:34:55;1.63;;;1.20;;
9892;SDS011;4985;49.092;8.542;2023-04-24T10:37:22;1.50;;;1.40;;
9892;SDS011;4985;49.092;8.542;2023-04-24T10:39:49;3.17;;;1.60;;
9892;SDS011;4985;49.092;8.542;2023-04-24T10:42:19;3.20;;;1.23;;
9892;SDS011;4985;49.092;8.542;2023-04-24T10:44:47;1.60;;;1.50;;
9892;SDS011;4985;49.092;8.542;2023-04-24T10:47:15;2.80;;;1.40;;
9892;SDS011;4985;49.092;8.542;2023-04-24T10:49:42;1.87;;;1.50;;
9892;SDS011;4985;49.092;8.542;2023-04-24T10:52:08;4.87;;;1.90;;
9892;SDS011;4985;49.092;8.542;2023-04-24T10:54:36;2.03;;;1.80;;
9892;SDS011;4985;49.092;8.542;2023-04-24T10:57:26;2.47;;;2.10;;
9892;SDS011;4985;49.092;8.542;2023-04-24T11:00:10;2.07;;;1.70;;
9892;SDS011;4985;49.092;8.542;2023-04-24T11:02:42;2.90;;;1.80;;
9892;SDS011;4985;49.092;8.542;2023-04-24T11:05:14;7.13;;;2.10;;
9892;SDS011;4985;49.092;8.542;2023-04-24T11:10:37;3.80;;;1.77;;
9892;SDS011;4985;49.092;8.542;2023-04-24T11:13:05;1.90;;;1.70;;
9892;SDS011;4985;49.092;8.542;2023-04-24T11:15:31;1.90;;;1.60;;
9892;SDS011;4985;49.092;8.542;2023-04-24T11:17:59;1.90;;;1.53;;
9892;SDS011;4985;49.092;8.542;2023-04-24T11:20:26;2.43;;;1.93;;
9892;SDS011;4985;49.092;8.542;2023-04-24T11:22:53;3.30;;;1.83;;
9892;SDS011;4985;49.092;8.542;2023-04-24T11:25:22;2.57;;;1.70;;
9892;SDS011;4985;49.092;8.542;2023-04-24T11:27:50;1.87;;;1.33;;
9892;SDS011;4985;49.092;8.542;2023-04-24T11:30:28;2.87;;;1.80;;
9892;SDS011;4985;49.092;8.542;2023-04-24T11:32:56;2.40;;;1.90;;
9892;SDS011;4985;49.092;8.542;2023-04-24T11:35:30;3.07;;;1.80;;
9892;SDS011;4985;49.092;8.542;2023-04-24T11:38:02;2.10;;;1.27;;
9892;SDS011;4985;49.092;8.542;2023-04-24T11:40:30;1.40;;;1.30;;
9892;SDS011;4985;49.092;8.542;2023-04-24T11:42:59;2.00;;;1.80;;
9892;SDS011;4985;49.092;8.542;2023-04-24T11:45:26;1.87;;;1.67;;
9892;SDS011;4985;49.092;8.542;2023-04-24T11:47:56;1.60;;;1.50;;
9892;SDS011;4985;49.092;8.542;2023-04-24T11:50:25;1.87;;;1.57;;
9892;SDS011;4985;49.092;8.542;2023-04-24T11:52:54;3.13;;;1.90;;
9892;SDS011;4985;49.092;8.542;2023-04-24T11:55:28;2.93;;;1.90;;
9892;SDS011;4985;49.092;8.542;2023-04-24T11:57:56;3.13;;;2.00;;
9892;SDS011;4985;49.092;8.542;2023-04-24T12:00:24;2.30;;;2.00;;
9892;SDS011;4985;49.092;8.542;2023-04-24T12:03:02;3.17;;;1.93;;
9892;SDS011;4985;49.092;8.542;2023-04-24T12:05:32;3.63;;;2.10;;
9892;SDS011;4985;49.092;8.542;2023-04-24T12:07:59;2.20;;;1.90;;
9892;SDS011;4985;49.092;8.542;2023-04-24T12:10:26;2.40;;;2.20;;
9892;SDS011;4985;49.092;8.542;2023-04-24T12:12:55;3.70;;;2.10;;
9892;SDS011;4985;49.092;8.542;2023-04-24T12:15:23;3.17;;;2.13;;
9892;SDS011;4985;49.092;8.542;2023-04-24T12:17:50;1.93;;;1.73;;
9892;SDS011;4985;49.092;8.542;2023-04-24T12:20:22;2.73;;;2.10;;
9892;SDS011;4985;49.092;8.542;2023-04-24T12:22:52;2.37;;;1.90;;
9892;SDS011;4985;49.092;8.542;2023-04-24T12:25:20;2.67;;;1.80;;
9892;SDS011;4985;49.092;8.542;2023-04-24T12:27:51;2.63;;;1.93;;
9892;SDS011;4985;49.092;8.542;2023-04-24T12:30:20;3.20;;;2.10;;
9892;SDS011;4985;49.092;8.542;2023-04-24T12:32:48;2.93;;;2.07;;
9892;SDS011;4985;49.092;8.542;2023-04-24T12:35:18;2.17;;;1.90;;
9892;SDS011;4985;49.092;8.542;2023-04-24T12:37:46;1.90;;;1.73;;
9892;SDS011;4985;49.092;8.542;2023-04-24T12:40:14;3.70;;;2.10;;
9892;SDS011;4985;49.092;8.542;2023-04-24T12:42:42;2.53;;;2.17;;
9892;SDS011;4985;49.092;8.542;2023-04-24T12:45:10;2.50;;;1.93;;
9892;SDS011;4985;49.092;8.542;2023-04-24T12:47:38;2.77;;;1.97;;
9892;SDS011;4985;49.092;8.542;2023-04-24T12:50:05;3.63;;;2.13;;
9892;SDS011;4985;49.092;8.542;2023-04-24T12:52:33;2.00;;;1.73;;
9892;SDS011;4985;49.092;8.542;2023-04-24T12:55:00;2.23;;;1.83;;
9892;SDS011;4985;49.092;8.542;2023-04-24T12:57:29;2.50;;;2.00;;
9892;SDS011;4985;49.092;8.542;2023-04-24T12:59:57;2.33;;;2.13;;
9892;SDS011;4985;49.092;8.542;2023-04-24T13:02:25;2.50;;;2.30;;
9892;SDS011;4985;49.092;8.542;2023-04-24T13:04:54;2.00;;;1.80;;
9892;SDS011;4985;49.092;8.542;2023-04-24T13:07:21;3.27;;;2.20;;
9892;SDS011;4985;49.092;8.542;2023-04-24T13:09:48;2.30;;;2.00;;
9892;SDS011;4985;49.092;8.542;2023-04-24T13:12:15;2.53;;;2.10;;
9892;SDS011;4985;49.092;8.542;2023-04-24T13:14:44;3.80;;;2.23;;
9892;SDS011;4985;49.092;8.542;2023-04-24T13:17:11;2.50;;;1.80;;
9892;SDS011;4985;49.092;8.542;2023-04-24T13:19:40;2.23;;;1.70;;
9892;SDS011;4985;49.092;8.542;2023-04-24T13:22:09;2.77;;;1.83;;
9892;SDS011;4985;49.092;8.542;2023-04-24T13:24:36;2.27;;;1.70;;
9892;SDS011;4985;49.092;8.542;2023-04-24T13:27:04;2.27;;;1.87;;
9892;SDS011;4985;49.092;8.542;2023-04-24T13:29:31;2.83;;;2.00;;
9892;SDS011;4985;49.092;8.542;2023-04-24T13:31:59;3.40;;;2.00;;
9892;SDS011;4985;49.092;8.542;2023-04-24T13:34:26;2.43;;;1.90;;
9892;SDS011;4985;49.092;8.542;2023-04-24T13:36:53;2.97;;;2.07;;
9892;SDS011;4985;49.092;8.542;2023-04-24T13:39:21;2.93;;;2.33;;
9892;SDS011;4985;49.092;8.542;2023-04-24T13:41:48;2.17;;;1.97;;
9892;SDS011;4985;49.092;8.542;2023-04-24T13:44:14;2.23;;;1.67;;
9892;SDS011;4985;49.092;8.542;2023-04-24T13:46:42;2.97;;;1.67;;
9892;SDS011;4985;49.092;8.542;2023-04-24T13:49:10;3.27;;;1.80;;
9892;SDS011;4985;49.092;8.542;2023-04-24T13:51:37;2.10;;;1.90;;
9892;SDS011;4985;49.092;8.542;2023-04-24T13:54:05;2.17;;;1.67;;
9892;SDS011;4985;49.092;8.542;2023-04-24T13:56:31;2.87;;;2.30;;
9892;SDS011;4985;49.092;8.542;2023-04-24T13:58:58;3.67;;;2.40;;
9892;SDS011;4985;49.092;8.542;2023-04-24T14:01:25;2.87;;;1.90;;
9892;SDS011;4985;49.092;8.542;2023-04-24T14:03:52;3.83;;;1.77;;
9892;SDS011;4985;49.092;8.542;2023-04-24T14:06:21;3.17;;;1.90;;
9892;SDS011;4985;49.092;8.542;2023-04-24T14:08:48;3.97;;;2.20;;
9892;SDS011;4985;49.092;8.542;2023-04-24T14:11:15;2.70;;;1.83;;
9892;SDS011;4985;49.092;8.542;2023-04-24T14:13:42;2.60;;;1.90;;
9892;SDS011;4985;49.092;8.542;2023-04-24T14:16:09;2.43;;;2.00;;
9892;SDS011;4985;49.092;8.542;2023-04-24T14:18:36;3.13;;;2.23;;
9892;SDS011;4985;49.092;8.542;2023-04-24T14:21:03;4.53;;;2.23;;
9892;SDS011;4985;49.092;8.542;2023-04-24T14:23:32;2.53;;;2.10;;
9892;SDS011;4985;49.092;8.542;2023-04-24T14:25:58;2.70;;;2.13;;
9892;SDS011;4985;49.092;8.542;2023-04-24T14:28:25;3.03;;;1.80;;
9892;SDS011;4985;49.092;8.542;2023-04-24T14:30:52;3.70;;;2.30;;
9892;SDS011;4985;49.092;8.542;2023-04-24T14:33:19;2.07;;;1.77;;
9892;SDS011;4985;49.092;8.542;2023-04-24T14:35:46;2.77;;;1.70;;
9892;SDS011;4985;49.092;8.542;2023-04-24T14:38:12;3.50;;;1.90;;
9892;SDS011;4985;49.092;8.542;2023-04-24T14:40:40;2.50;;;1.70;;
9892;SDS011;4985;49.092;8.542;2023-04-24T14:43:07;2.30;;;1.80;;
9892;SDS011;4985;49.092;8.542;2023-04-24T14:45:33;1.87;;;1.73;;
9892;SDS011;4985;49.092;8.542;2023-04-24T14:48:00;3.80;;;2.67;;
9892;SDS011;4985;49.092;8.542;2023-04-24T14:50:26;2.90;;;2.10;;
9892;SDS011;4985;49.092;8.542;2023-04-24T14:52:54;1.93;;;1.73;;
9892;SDS011;4985;49.092;8.542;2023-04-24T14:55:22;1.93;;;1.57;;
9892;SDS011;4985;49.092;8.542;2023-04-24T14:57:50;2.50;;;1.50;;
9892;SDS011;4985;49.092;8.542;2023-04-24T15:00:17;2.10;;;1.90;;
9892;SDS011;4985;49.092;8.542;2023-04-24T15:02:45;3.10;;;1.80;;
9892;SDS011;4985;49.092;8.542;2023-04-24T15:05:11;2.70;;;1.67;;
9892;SDS011;4985;49.092;8.542;2023-04-24T15:07:38;1.60;;;1.43;;
9892;SDS011;4985;49.092;8.542;2023-04-24T15:10:06;2.37;;;1.57;;
9892;SDS011;4985;49.092;8.542;2023-04-24T15:12:33;2.17;;;1.43;;
9892;SDS011;4985;49.092;8.542;2023-04-24T15:15:02;1.47;;;1.30;;
9892;SDS011;4985;49.092;8.542;2023-04-24T15:17:28;1.93;;;1.70;;
9892;SDS011;4985;49.092;8.542;2023-04-24T15:19:55;1.67;;;1.57;;